ローマ/フィウミチーノ の空港の天気 - METARとTAF

ローマ・レオナルド・ダ・ビンチ国際空港 ( LIRF / FCO ) - イタリア ローマ
飛行場実況気象(Metar)
観測時間07/18 14:20 CEST (07/18 12:20 UTC)
風向・風速西 6m/s
視程10km以上
天気現象
少しの雲 雲底高度 1070m
気温29℃
湿度62%
気圧1014hPa
METARLIRF 181220Z 28012KT 9999 FEW035 29/21 Q1014 NOSIG
過去の天気等 Google飛行場航空写真 Wunderground天気予報

過去48時間のMETAR

飛行場予報(TAF)
発表時間: 7/18 13:00 CEST (7/18 11:00 UTC)
予報対象時間: 18日14時 CEST ~ 19日20時 CEST
風向・風速西 6m/s
視程10km以上
なし
18日19時 CEST ~ 18日21時 CEST に徐々に
風向・風速不定 2m/s
19日11時 CEST ~ 19日13時 CEST に徐々に
風向・風速西 6m/s
TAF LIRF 181100Z 1812/1918 27012KT CAVOK
BECMG 1817/1819 VRB04KT
BECMG 1909/1911 26012KT